createdAt,value
2018-11-29T00:11:03.023Z,14.60
2018-11-29T01:10:45.354Z,12.97
2018-11-29T01:13:14.485Z,14.10
2018-11-29T01:19:16.207Z,12.07
2018-11-29T01:39:09.529Z,14.50
2018-11-29T01:45:23.595Z,14.10
2018-11-29T01:51:37.752Z,13.93
2018-11-29T01:57:39.356Z,13.10
2018-11-29T02:00:15.931Z,14.30
2018-11-29T02:24:25.925Z,13.50
2018-11-29T02:51:17.692Z,15.20
2018-11-29T02:53:47.045Z,14.70
2018-11-29T03:20:46.337Z,18.40
2018-11-29T03:23:15.484Z,16.57
2018-11-29T03:25:44.284Z,14.33
2018-11-29T03:28:13.679Z,15.47
2018-11-29T03:41:38.241Z,15.40
2018-11-29T03:54:54.144Z,15.97
2018-11-29T04:01:14.308Z,15.50
2018-11-29T04:14:33.818Z,16.93
2018-11-29T04:34:30.218Z,14.43
2018-11-29T04:54:29.740Z,15.88
2018-11-29T04:56:58.843Z,14.53
2018-11-29T05:03:01.742Z,14.90
2018-11-29T05:05:30.832Z,14.00
2018-11-29T05:18:24.966Z,15.20
2018-11-29T05:20:54.056Z,16.53
2018-11-29T05:31:43.789Z,16.00
2018-11-29T05:41:07.435Z,14.67
2018-11-29T05:43:36.575Z,18.23
2018-11-29T05:46:05.683Z,17.60
2018-11-29T06:06:47.632Z,17.30
2018-11-29T06:20:06.162Z,19.42
2018-11-29T06:22:35.494Z,20.93
2018-11-29T06:28:57.203Z,21.50
2018-11-29T06:31:27.438Z,20.30
2018-11-29T06:33:56.793Z,21.60
2018-11-29T06:47:18.078Z,21.50
2018-11-29T07:35:17.486Z,16.10
2018-11-29T07:48:26.972Z,14.10
2018-11-29T07:50:56.131Z,13.90
2018-11-29T07:57:17.261Z,11.33
2018-11-29T07:59:46.595Z,12.47
2018-11-29T08:02:15.935Z,11.53
2018-11-29T08:04:45.276Z,11.80
2018-11-29T08:07:14.610Z,11.17
2018-11-29T08:09:43.724Z,12.17
2018-11-29T08:12:12.803Z,11.33
2018-11-29T08:14:41.900Z,12.43
2018-11-29T08:17:11.031Z,10.07
2018-11-29T08:19:40.126Z,10.97
2018-11-29T08:22:09.199Z,9.57
2018-11-29T08:24:38.580Z,10.27
2018-11-29T08:27:07.663Z,11.00
2018-11-29T08:29:36.986Z,11.30
2018-11-29T08:32:06.220Z,9.17
2018-11-29T08:34:35.554Z,9.90
2018-11-29T08:37:04.633Z,11.03
2018-11-29T08:39:34.005Z,8.63
2018-11-29T08:42:03.100Z,9.47
2018-11-29T08:44:32.188Z,8.90
2018-11-29T08:47:01.783Z,9.33
2018-11-29T08:49:30.851Z,9.40
2018-11-29T08:51:59.926Z,10.80
2018-11-29T08:54:29.302Z,10.73
2018-11-29T08:56:58.616Z,10.03
2018-11-29T08:59:27.931Z,7.90
2018-11-29T09:01:57.419Z,9.33
2018-11-29T09:04:26.497Z,9.00
2018-11-29T09:06:55.826Z,9.00
2018-11-29T09:09:25.175Z,10.00
2018-11-29T09:11:54.502Z,9.17
2018-11-29T09:14:23.590Z,9.50
2018-11-29T09:16:52.806Z,7.57
2018-11-29T09:19:22.130Z,11.40
2018-11-29T09:21:51.700Z,10.77
2018-11-29T09:24:20.795Z,7.70
2018-11-29T09:26:49.893Z,7.60
2018-11-29T09:29:19.086Z,8.03
2018-11-29T09:31:48.810Z,7.97
2018-11-29T09:34:18.117Z,8.40
2018-11-29T09:36:47.434Z,9.10
2018-11-29T09:39:16.764Z,7.97
2018-11-29T09:41:45.846Z,6.90
2018-11-29T09:44:14.935Z,8.30
2018-11-29T09:46:44.049Z,8.17
2018-11-29T09:49:13.362Z,7.07
2018-11-29T09:51:42.722Z,8.20
2018-11-29T09:54:12.099Z,7.80
2018-11-29T09:56:41.430Z,8.13
2018-11-29T09:59:10.747Z,6.90
2018-11-29T10:01:39.861Z,6.67
2018-11-29T10:04:08.948Z,7.03
2018-11-29T10:06:38.264Z,6.73
2018-11-29T10:09:10.432Z,7.10
2018-11-29T10:11:39.755Z,7.20
2018-11-29T10:14:09.082Z,7.97
2018-11-29T10:16:38.206Z,6.83
2018-11-29T10:19:07.552Z,8.13
2018-11-29T10:21:36.631Z,5.27
2018-11-29T10:24:05.973Z,6.63
2018-11-29T10:26:35.550Z,6.60
2018-11-29T10:29:04.628Z,7.60
2018-11-29T10:31:33.710Z,7.43
2018-11-29T10:34:02.796Z,6.07
2018-11-29T10:36:32.142Z,6.20
2018-11-29T10:39:01.218Z,5.77
2018-11-29T10:41:30.626Z,7.43
2018-11-29T10:43:59.660Z,7.60
2018-11-29T10:46:29.014Z,7.33
2018-11-29T10:48:58.391Z,6.90
2018-11-29T10:51:27.470Z,7.37
2018-11-29T10:53:56.623Z,6.40
2018-11-29T10:56:25.979Z,6.80
2018-11-29T10:58:55.295Z,6.90
2018-11-29T11:01:44.684Z,4.97
2018-11-29T11:04:13.770Z,5.60
2018-11-29T11:06:43.095Z,5.00
2018-11-29T11:09:12.433Z,5.87
2018-11-29T11:11:41.512Z,6.40
2018-11-29T11:14:10.597Z,6.60
2018-11-29T11:16:39.734Z,6.50
2018-11-29T11:19:08.813Z,4.87
2018-11-29T11:21:37.900Z,6.60
2018-11-29T11:24:07.069Z,6.83
2018-11-29T11:26:36.414Z,6.57
2018-11-29T11:29:05.897Z,7.20
2018-11-29T11:31:34.989Z,5.93
2018-11-29T11:34:04.065Z,6.30
2018-11-29T11:36:33.139Z,7.20
2018-11-29T11:39:02.498Z,8.00
2018-11-29T11:41:31.588Z,7.43
2018-11-29T11:44:00.698Z,5.93
2018-11-29T11:46:29.802Z,14.20
2018-11-29T11:48:59.184Z,17.73
2018-11-29T11:51:28.271Z,22.40
2018-11-29T11:53:57.385Z,14.60
2018-11-29T11:56:26.464Z,31.40
2018-11-29T11:58:55.618Z,16.20
2018-11-29T12:01:24.703Z,54.30
2018-11-29T12:03:54.031Z,68.57
2018-11-29T12:06:23.163Z,34.10
2018-11-29T12:08:52.508Z,38.70
2018-11-29T12:11:21.630Z,29.27
2018-11-29T12:24:15.496Z,9.40
2018-11-29T12:26:44.589Z,8.10
2018-11-29T12:39:48.320Z,8.60
2018-11-29T12:42:17.650Z,9.03
2018-11-29T12:44:47.218Z,7.77
2018-11-29T12:47:16.367Z,9.47
2018-11-29T12:49:45.522Z,10.03
2018-11-29T12:52:14.624Z,9.20
2018-11-29T12:54:43.757Z,10.70
2018-11-29T12:57:12.851Z,8.60
2018-11-29T12:59:42.327Z,9.13
2018-11-29T13:02:11.557Z,10.20
2018-11-29T13:04:40.633Z,10.17
2018-11-29T13:07:09.728Z,8.70
2018-11-29T13:09:39.048Z,9.00
2018-11-29T13:12:08.134Z,10.27
2018-11-29T13:32:38.149Z,12.43
2018-11-29T13:35:38.235Z,17.80
2018-11-29T13:38:15.093Z,14.63
2018-11-29T13:40:49.343Z,13.30
2018-11-29T13:43:18.428Z,11.93
2018-11-29T13:45:47.519Z,10.10
2018-11-29T13:48:16.898Z,10.60
2018-11-29T13:50:45.975Z,10.83
2018-11-29T13:53:15.330Z,13.57
2018-11-29T13:55:44.708Z,12.30
2018-11-29T13:58:13.951Z,12.83
2018-11-29T14:00:43.288Z,12.10
2018-11-29T14:03:14.281Z,10.20
2018-11-29T14:05:43.595Z,10.23
2018-11-29T14:08:13.174Z,11.10
2018-11-29T14:10:43.325Z,13.00
2018-11-29T14:13:12.968Z,10.60
2018-11-29T14:19:33.325Z,11.20
2018-11-29T14:25:47.831Z,11.33
2018-11-29T14:59:56.072Z,12.00
2018-11-29T15:02:25.171Z,13.10
2018-11-29T15:04:54.460Z,12.50
2018-11-29T15:10:50.368Z,10.97
2018-11-29T15:16:46.298Z,10.77
2018-11-29T15:23:00.364Z,11.63
2018-11-29T15:36:06.741Z,11.57
2018-11-29T15:38:36.059Z,9.30
2018-11-29T15:41:05.745Z,9.73
2018-11-29T15:43:34.874Z,9.20
2018-11-29T15:56:50.941Z,10.67
2018-11-29T16:10:12.938Z,10.93
2018-11-29T16:12:42.045Z,12.93
2018-11-29T16:15:18.055Z,12.90
2018-11-29T16:21:32.508Z,12.83
2018-11-29T16:24:01.630Z,12.37
2018-11-29T16:30:02.801Z,12.67
2018-11-29T16:57:21.710Z,15.07
2018-11-29T17:03:36.319Z,14.90
2018-11-29T17:09:50.654Z,13.67
2018-11-29T17:15:46.016Z,20.87
2018-11-29T17:21:48.734Z,16.60
2018-11-29T17:34:55.074Z,13.00
2018-11-29T18:08:18.401Z,18.90
2018-11-29T18:10:50.620Z,21.10
2018-11-29T18:13:31.434Z,19.77
2018-11-29T18:16:00.540Z,21.57
2018-11-29T18:18:29.640Z,20.40
2018-11-29T18:20:58.793Z,20.67
2018-11-29T18:23:27.993Z,21.80
2018-11-29T18:29:48.647Z,20.30
2018-11-29T18:32:18.051Z,20.23
2018-11-29T18:34:47.177Z,21.40
2018-11-29T18:37:16.348Z,21.80
2018-11-29T18:39:46.102Z,20.93
2018-11-29T18:42:15.193Z,21.60
2018-11-29T18:44:44.761Z,20.60
2018-11-29T18:47:14.420Z,19.93
2018-11-29T18:49:43.767Z,20.20
2018-11-29T18:56:11.753Z,22.73
2018-11-29T18:58:40.905Z,30.43
2018-11-29T19:01:10.244Z,20.00
2018-11-29T19:06:18.908Z,19.23
2018-11-29T19:08:48.361Z,22.23
2018-11-29T19:11:17.253Z,18.67
2018-11-29T19:13:47.826Z,21.20
2018-11-29T19:16:17.171Z,20.70
2018-11-29T19:18:46.300Z,20.27
2018-11-29T19:21:17.193Z,20.17
2018-11-29T19:23:47.009Z,18.20
2018-11-29T19:26:16.732Z,18.00
2018-11-29T19:28:46.064Z,19.47
2018-11-29T19:31:15.381Z,18.77
2018-11-29T19:33:44.579Z,15.97
2018-11-29T19:36:14.610Z,18.20
2018-11-29T19:38:43.734Z,17.40
2018-11-29T19:41:12.985Z,21.27
2018-11-29T19:43:43.057Z,16.20
2018-11-29T19:46:12.687Z,16.40
2018-11-29T19:48:42.049Z,14.67
2018-11-29T19:51:10.813Z,18.27
2018-11-29T19:53:39.936Z,18.27
2018-11-29T19:56:09.253Z,20.00
2018-11-29T19:58:38.392Z,16.47
2018-11-29T20:01:08.313Z,17.33
2018-11-29T20:03:37.409Z,16.93
2018-11-29T20:06:07.248Z,17.03
2018-11-29T20:08:37.241Z,19.43
2018-11-29T20:11:07.601Z,18.97
2018-11-29T20:13:36.844Z,18.60
2018-11-29T20:16:06.826Z,17.50
2018-11-29T20:18:37.782Z,18.63
2018-11-29T20:21:12.086Z,22.30
2018-11-29T20:23:41.681Z,21.57
2018-11-29T20:26:11.570Z,25.80
2018-11-29T20:28:41.482Z,23.50
2018-11-29T20:31:10.232Z,21.30
2018-11-29T20:33:40.206Z,20.57
2018-11-29T20:36:09.308Z,21.63
2018-11-29T20:38:38.414Z,19.27
2018-11-29T20:41:08.021Z,21.60
2018-11-29T20:43:37.624Z,18.20
2018-11-29T20:46:07.664Z,23.40
2018-11-29T20:48:36.841Z,19.50
2018-11-29T20:51:06.332Z,20.37
2018-11-29T20:53:37.617Z,20.40
2018-11-29T20:56:10.464Z,21.70
2018-11-29T20:58:39.628Z,19.27
2018-11-29T21:01:09.956Z,20.13
2018-11-29T21:03:39.432Z,18.40
2018-11-29T21:06:13.461Z,20.53
2018-11-29T21:08:43.334Z,17.50
2018-11-29T21:11:12.088Z,18.47
2018-11-29T21:13:41.481Z,20.43
2018-11-29T21:16:12.041Z,18.30
2018-11-29T21:18:41.352Z,19.47
2018-11-29T21:21:11.309Z,18.90
2018-11-29T21:23:40.408Z,18.33
2018-11-29T21:26:09.803Z,18.77
2018-11-29T21:28:39.449Z,21.97
2018-11-29T21:31:09.128Z,17.97
2018-11-29T21:33:38.285Z,18.90
2018-11-29T21:36:07.473Z,17.43
2018-11-29T21:38:37.090Z,19.20
2018-11-29T21:41:06.976Z,20.90
2018-11-29T21:43:36.113Z,21.60
2018-11-29T21:46:05.304Z,19.93
2018-11-29T21:48:34.425Z,20.67
2018-11-29T21:51:03.864Z,25.27
2018-11-29T21:53:33.871Z,20.90
2018-11-29T21:56:02.993Z,18.77
2018-11-29T21:58:32.810Z,18.27
2018-11-29T22:01:01.907Z,19.10
2018-11-29T22:03:31.070Z,18.37
2018-11-29T22:06:01.144Z,18.50
2018-11-29T22:08:30.439Z,18.53
2018-11-29T22:10:59.709Z,18.77
2018-11-29T22:13:29.355Z,19.03
2018-11-29T22:15:58.699Z,19.93
2018-11-29T22:18:29.882Z,17.70
2018-11-29T22:21:02.192Z,20.90
2018-11-29T22:23:34.736Z,21.20
2018-11-29T22:26:10.634Z,21.50
2018-11-29T22:28:43.866Z,18.83
2018-11-29T22:31:12.948Z,22.10
2018-11-29T22:33:42.337Z,17.20
2018-11-29T22:36:15.872Z,25.03
2018-11-29T22:38:45.344Z,21.90
2018-11-29T22:41:15.064Z,19.63
2018-11-29T22:43:43.328Z,19.00
2018-11-29T22:46:12.742Z,21.47
2018-11-29T22:48:44.121Z,18.67
2018-11-29T22:51:14.716Z,17.20
2018-11-29T22:53:43.632Z,18.60
2018-11-29T22:56:13.131Z,18.50
2018-11-29T22:58:43.088Z,20.97
2018-11-29T23:01:17.577Z,20.90
2018-11-29T23:03:46.808Z,21.17
2018-11-29T23:06:16.106Z,19.00
2018-11-29T23:08:45.676Z,20.70
2018-11-29T23:11:15.173Z,19.23
2018-11-29T23:13:44.350Z,17.90
2018-11-29T23:16:13.624Z,21.17
2018-11-29T23:18:44.131Z,20.53
2018-11-29T23:21:13.513Z,19.60
2018-11-29T23:23:43.113Z,18.50
2018-11-29T23:26:12.298Z,20.23
2018-11-29T23:28:42.676Z,20.37
2018-11-29T23:31:11.510Z,18.80
2018-11-29T23:33:41.950Z,19.90
2018-11-29T23:36:11.168Z,21.53
2018-11-29T23:38:40.327Z,17.50
2018-11-29T23:41:09.948Z,19.77
2018-11-29T23:43:39.108Z,19.70
2018-11-29T23:46:08.260Z,17.30
2018-11-29T23:48:37.677Z,19.57
2018-11-29T23:51:07.184Z,18.50
2018-11-29T23:53:37.275Z,21.83
2018-11-29T23:56:07.165Z,17.13
2018-11-29T23:58:37.035Z,20.83
